Terminal Aerodrome Forecast
Issued by NWS Topeka, KS

Home | Current Version | Previous Version | Text Only | Print | Product List | Glossary On
Versions: 1 2 3 4 5 6 7 8 9 10 11 12 13 14 15 16 17
000
FTUS43 KTOP 020500
TAFTOP
TAF
KTOP 020521Z 0206/0306 31004KT P6SM SCT020 SCT100
     FM021100 10005KT 5SM BR SCT060
     FM021500 12008KT P6SM BKN100=

USA.gov is the U.S. government's official web portal to all federal, state and local government web resources and services.